createdAt,value
2022-09-22T00:01:18.139Z,56.28
2022-09-22T00:03:49.588Z,56.08
2022-09-22T00:06:19.127Z,56.16
2022-09-22T00:08:49.587Z,56.15
2022-09-22T00:11:20.210Z,55.90
2022-09-22T00:13:51.103Z,56.14
2022-09-22T00:16:20.831Z,56.12
2022-09-22T00:18:50.451Z,56.14
2022-09-22T00:21:19.795Z,55.83
2022-09-22T00:23:48.230Z,56.08
2022-09-22T00:26:21.669Z,55.82
2022-09-22T00:28:51.228Z,56.16
2022-09-22T00:31:21.299Z,55.90
2022-09-22T00:33:51.510Z,55.88
2022-09-22T00:36:21.565Z,56.11
2022-09-22T00:38:50.675Z,56.04
2022-09-22T00:41:20.771Z,56.00
2022-09-22T00:43:50.435Z,55.77
2022-09-22T00:46:21.673Z,55.77
2022-09-22T00:48:56.328Z,55.65
2022-09-22T00:51:28.534Z,55.66
2022-09-22T00:53:58.600Z,55.69
2022-09-22T00:56:29.763Z,55.99
2022-09-22T00:59:01.679Z,55.69
2022-09-22T01:01:29.445Z,55.76
2022-09-22T01:03:58.899Z,55.69
2022-09-22T01:06:29.792Z,55.79
2022-09-22T01:08:58.417Z,55.94
2022-09-22T01:11:27.921Z,55.74
2022-09-22T01:14:05.252Z,56.03
2022-09-22T01:16:46.148Z,55.67
2022-09-22T01:19:39.982Z,55.89
2022-09-22T01:22:25.183Z,55.72
2022-09-22T01:25:15.164Z,55.93
2022-09-22T01:28:22.823Z,55.85
2022-09-22T01:30:58.692Z,56.12
2022-09-22T01:33:37.086Z,55.96
2022-09-22T01:36:25.554Z,55.99
2022-09-22T01:39:02.631Z,55.74
2022-09-22T01:41:58.331Z,55.78
2022-09-22T01:44:32.629Z,55.85
2022-09-22T01:47:08.342Z,55.73
2022-09-22T01:49:41.544Z,55.95
2022-09-22T01:52:16.647Z,56.09
2022-09-22T01:54:47.440Z,55.84
2022-09-22T01:57:22.096Z,55.73
2022-09-22T01:59:54.922Z,55.73
2022-09-22T02:02:29.876Z,55.75
2022-09-22T02:05:02.225Z,55.54
2022-09-22T02:07:33.970Z,55.64
2022-09-22T02:10:06.595Z,56.03
2022-09-22T02:12:35.788Z,55.63
2022-09-22T02:15:03.810Z,55.55
2022-09-22T02:17:35.366Z,55.66
2022-09-22T02:20:06.351Z,55.57
2022-09-22T02:22:34.263Z,55.81
2022-09-22T02:25:01.929Z,56.06
2022-09-22T02:27:36.757Z,55.71
2022-09-22T02:30:08.883Z,56.10
2022-09-22T02:32:41.854Z,55.67
2022-09-22T02:35:10.662Z,55.97
2022-09-22T02:37:42.953Z,56.01
2022-09-22T02:40:16.663Z,55.54
2022-09-22T02:42:49.818Z,56.08
2022-09-22T02:45:23.295Z,55.80
2022-09-22T02:47:57.202Z,55.61
2022-09-22T02:50:28.269Z,55.80
2022-09-22T02:53:02.667Z,55.74
2022-09-22T02:55:30.471Z,55.64
2022-09-22T02:57:58.366Z,55.60
2022-09-22T03:00:26.832Z,55.59
2022-09-22T03:02:56.018Z,56.02
2022-09-22T03:05:23.755Z,55.79
2022-09-22T03:07:51.459Z,55.44
2022-09-22T03:10:19.456Z,55.48
2022-09-22T03:13:14.464Z,55.98
2022-09-22T03:15:34.983Z,55.74
2022-09-22T03:18:04.202Z,55.42
2022-09-22T03:20:31.905Z,55.43
2022-09-22T03:22:59.611Z,55.56
2022-09-22T03:25:27.568Z,55.78
2022-09-22T03:27:55.270Z,56.04
2022-09-22T03:30:22.999Z,56.06
2022-09-22T03:32:50.863Z,56.02
2022-09-22T03:35:20.077Z,55.52
2022-09-22T03:37:48.037Z,55.91
2022-09-22T03:40:16.156Z,55.54
2022-09-22T03:42:43.936Z,55.86
2022-09-22T03:45:12.689Z,55.76
2022-09-22T03:47:40.429Z,55.86
2022-09-22T03:50:09.281Z,55.53
2022-09-22T03:52:40.060Z,55.59
2022-09-22T03:55:09.218Z,55.81
2022-09-22T03:57:37.009Z,55.58
2022-09-22T04:00:05.790Z,55.85
2022-09-22T04:02:33.582Z,55.39
2022-09-22T04:05:01.336Z,55.89
2022-09-22T04:07:29.030Z,55.42
2022-09-22T04:09:58.621Z,55.90
2022-09-22T04:12:26.298Z,55.50
2022-09-22T04:14:54.022Z,55.51
2022-09-22T04:17:21.873Z,55.59
2022-09-22T04:19:49.716Z,55.75
2022-09-22T04:22:17.457Z,55.84
2022-09-22T04:24:45.152Z,55.61
2022-09-22T04:27:21.530Z,55.64
2022-09-22T04:29:49.315Z,55.63
2022-09-22T04:32:17.646Z,55.57
2022-09-22T04:34:45.726Z,55.19
2022-09-22T04:37:13.690Z,55.56
2022-09-22T04:39:41.651Z,55.30
2022-09-22T04:42:09.945Z,55.28
2022-09-22T04:44:39.041Z,55.46
2022-09-22T04:47:07.003Z,55.30
2022-09-22T04:49:34.760Z,55.58
2022-09-22T04:52:02.904Z,55.24
2022-09-22T04:54:30.684Z,55.69
2022-09-22T04:56:58.422Z,55.27
2022-09-22T04:59:26.395Z,55.25
2022-09-22T05:01:55.435Z,55.67
2022-09-22T05:04:23.126Z,55.52
2022-09-22T05:06:50.879Z,55.30
2022-09-22T05:09:20.816Z,55.54
2022-09-22T05:11:49.591Z,55.63
2022-09-22T05:14:20.561Z,55.41
2022-09-22T05:16:50.685Z,55.66
2022-09-22T05:19:20.293Z,55.49
2022-09-22T05:21:48.043Z,55.67
2022-09-22T05:24:15.775Z,55.25
2022-09-22T05:26:43.486Z,55.29
2022-09-22T05:29:11.538Z,55.26
2022-09-22T05:31:39.309Z,55.16
2022-09-22T05:34:07.212Z,55.65
2022-09-22T05:36:36.274Z,55.60
2022-09-22T05:39:04.215Z,55.32
2022-09-22T05:41:31.991Z,55.78
2022-09-22T05:43:59.733Z,55.50
2022-09-22T05:46:27.522Z,55.30
2022-09-22T05:48:55.307Z,55.25
2022-09-22T05:51:23.042Z,55.66
2022-09-22T05:53:53.443Z,55.54
2022-09-22T05:56:21.191Z,55.77
2022-09-22T05:58:48.935Z,55.30
2022-09-22T06:01:16.922Z,55.86
2022-09-22T06:03:44.924Z,55.57
2022-09-22T06:06:12.664Z,55.62
2022-09-22T06:08:42.983Z,55.77
2022-09-22T06:11:15.464Z,55.59
2022-09-22T06:13:44.349Z,55.98
2022-09-22T06:16:14.705Z,56.27
2022-09-22T06:18:42.421Z,56.13
2022-09-22T06:21:10.405Z,56.34
2022-09-22T06:23:42.715Z,56.50
2022-09-22T06:26:11.684Z,56.36
2022-09-22T06:28:40.767Z,56.48
2022-09-22T06:31:08.463Z,56.21
2022-09-22T06:33:36.192Z,56.47
2022-09-22T06:36:04.218Z,56.62
2022-09-22T06:38:32.894Z,56.47
2022-09-22T06:41:01.784Z,56.69
2022-09-22T06:43:29.775Z,56.84
2022-09-22T06:46:02.807Z,56.63
2022-09-22T06:48:31.980Z,56.88
2022-09-22T06:51:00.092Z,56.71
2022-09-22T06:53:27.905Z,56.91
2022-09-22T06:55:55.704Z,57.10
2022-09-22T06:58:24.132Z,57.28
2022-09-22T07:00:53.811Z,57.19
2022-09-22T07:03:26.483Z,57.38
2022-09-22T07:05:55.614Z,57.08
2022-09-22T07:08:24.386Z,57.38
2022-09-22T07:10:56.934Z,57.48
2022-09-22T07:13:25.015Z,57.47
2022-09-22T07:15:53.010Z,57.32
2022-09-22T07:18:20.732Z,57.56
2022-09-22T07:20:50.046Z,57.62
2022-09-22T07:23:21.448Z,57.63
2022-09-22T07:25:56.462Z,57.34
2022-09-22T07:28:25.949Z,57.84
2022-09-22T07:30:53.649Z,57.60
2022-09-22T07:33:21.512Z,57.84
2022-09-22T07:35:50.747Z,57.65
2022-09-22T07:38:20.023Z,57.86
2022-09-22T07:40:53.456Z,57.77
2022-09-22T07:43:21.164Z,57.85
2022-09-22T07:45:55.880Z,57.41
2022-09-22T07:48:42.584Z,57.68
2022-09-22T07:51:16.753Z,57.52
2022-09-22T07:53:45.873Z,57.28
2022-09-22T07:56:15.523Z,57.41
2022-09-22T07:58:49.171Z,57.22
2022-09-22T08:01:17.869Z,57.43
2022-09-22T08:03:47.239Z,57.22
2022-09-22T08:06:19.547Z,57.40
2022-09-22T08:08:52.579Z,57.57
2022-09-22T08:11:22.073Z,57.43
2022-09-22T08:13:51.232Z,57.46
2022-09-22T08:16:19.453Z,57.29
2022-09-22T08:18:51.774Z,57.62
2022-09-22T08:21:20.868Z,57.74
2022-09-22T08:23:52.829Z,57.87
2022-09-22T08:26:22.086Z,57.50
2022-09-22T08:28:52.954Z,58.05
2022-09-22T08:31:21.728Z,57.79
2022-09-22T08:33:52.178Z,58.32
2022-09-22T08:36:22.116Z,58.87
2022-09-22T08:38:50.527Z,58.09
2022-09-22T08:41:27.442Z,58.32
2022-09-22T08:43:57.503Z,58.46
2022-09-22T08:46:29.553Z,58.23
2022-09-22T08:49:20.203Z,58.16
2022-09-22T08:51:55.376Z,57.94
2022-09-22T08:54:27.455Z,58.46
2022-09-22T08:57:21.475Z,58.30
2022-09-22T08:59:54.270Z,58.13
2022-09-22T09:02:38.542Z,58.70
2022-09-22T09:06:01.356Z,59.10
2022-09-22T09:08:50.581Z,58.92
2022-09-22T09:11:31.976Z,58.21
2022-09-22T09:14:13.680Z,58.24
2022-09-22T09:16:48.155Z,58.48
2022-09-22T09:19:20.089Z,58.67
2022-09-22T09:21:52.715Z,58.65
2022-09-22T09:27:24.222Z,59.03
2022-09-22T09:30:01.451Z,59.25
2022-09-22T09:32:37.723Z,59.04
2022-09-22T09:35:07.213Z,59.47
2022-09-22T09:37:35.556Z,59.30
2022-09-22T09:40:06.793Z,59.34
2022-09-22T09:42:36.477Z,59.58
2022-09-22T09:45:05.775Z,59.71
2022-09-22T09:47:48.392Z,59.43
2022-09-22T09:50:16.989Z,59.53
2022-09-22T09:52:46.249Z,59.64
2022-09-22T09:55:27.268Z,60.45
2022-09-22T09:58:07.759Z,60.12
2022-09-22T10:00:52.734Z,60.28
2022-09-22T10:03:26.590Z,59.95
2022-09-22T10:06:00.230Z,59.89
2022-09-22T10:08:32.098Z,59.64
2022-09-22T10:11:02.050Z,59.91
2022-09-22T10:13:32.441Z,59.76
2022-09-22T10:16:07.553Z,59.57
2022-09-22T10:18:37.710Z,59.83
2022-09-22T10:21:08.185Z,60.12
2022-09-22T10:23:36.637Z,60.00
2022-09-22T10:26:26.290Z,59.80
2022-09-22T10:29:19.154Z,60.25
2022-09-22T10:32:13.715Z,60.16
2022-09-22T10:34:47.278Z,60.28
2022-09-22T10:37:18.775Z,59.61
2022-09-22T10:39:49.856Z,60.02
2022-09-22T10:42:28.677Z,59.70
2022-09-22T10:45:02.752Z,59.03
2022-09-22T10:47:47.371Z,58.83
2022-09-22T10:50:31.723Z,59.66
2022-09-22T10:53:12.035Z,60.10
2022-09-22T10:55:50.112Z,59.44
2022-09-22T10:58:46.910Z,59.83
2022-09-22T11:01:31.205Z,60.41
2022-09-22T11:04:23.903Z,59.62
2022-09-22T11:07:23.798Z,59.00
2022-09-22T11:10:17.768Z,59.01
2022-09-22T11:12:54.573Z,59.22
2022-09-22T11:15:45.891Z,59.90
2022-09-22T11:18:37.620Z,59.74
2022-09-22T11:21:20.451Z,59.58
2022-09-22T11:24:14.729Z,59.08
2022-09-22T11:26:48.628Z,59.40
2022-09-22T11:29:37.461Z,58.27
2022-09-22T11:32:14.231Z,59.11
2022-09-22T11:35:00.946Z,59.74
2022-09-22T11:37:43.276Z,59.61
2022-09-22T11:40:37.031Z,58.60
2022-09-22T11:43:20.342Z,59.55
2022-09-22T11:45:54.232Z,59.12
2022-09-22T11:48:36.740Z,59.76
2022-09-22T11:51:18.874Z,59.65
2022-09-22T11:54:15.590Z,59.70
2022-09-22T11:56:46.091Z,59.82
2022-09-22T11:59:30.031Z,60.07
2022-09-22T12:02:04.604Z,59.52
2022-09-22T12:04:42.008Z,59.65
2022-09-22T12:07:17.389Z,59.93
2022-09-22T12:09:49.479Z,60.25
2022-09-22T12:12:20.635Z,60.17
2022-09-22T12:14:58.858Z,59.77
2022-09-22T12:17:32.450Z,58.67
2022-09-22T12:20:13.752Z,59.46
2022-09-22T12:23:09.628Z,59.68
2022-09-22T12:25:49.465Z,59.87
2022-09-22T12:28:20.750Z,59.85
2022-09-22T12:31:06.066Z,58.96
2022-09-22T12:33:37.086Z,57.67
2022-09-22T12:36:07.896Z,55.93
2022-09-22T12:38:35.936Z,56.13
2022-09-22T12:41:04.774Z,57.25
2022-09-22T12:43:34.459Z,58.30
2022-09-22T12:46:05.885Z,58.76
2022-09-22T12:48:36.035Z,58.77
2022-09-22T12:51:30.891Z,56.39
2022-09-22T12:54:41.405Z,55.96
2022-09-22T12:57:44.911Z,56.50
2022-09-22T13:00:32.288Z,56.88
2022-09-22T13:03:02.558Z,56.43
2022-09-22T13:05:46.837Z,57.81
2022-09-22T13:08:24.209Z,58.57
2022-09-22T13:11:00.710Z,57.71
2022-09-22T13:13:45.406Z,58.44
2022-09-22T13:16:34.496Z,58.67
2022-09-22T13:19:03.187Z,58.62
2022-09-22T13:21:32.691Z,57.08
2022-09-22T13:24:03.817Z,56.56
2022-09-22T13:26:33.508Z,56.50
2022-09-22T13:29:04.918Z,56.06
2022-09-22T13:31:45.357Z,56.77
2022-09-22T13:34:26.528Z,57.13
2022-09-22T13:36:58.250Z,57.28
2022-09-22T13:39:31.062Z,56.55
2022-09-22T13:42:05.254Z,57.00
2022-09-22T13:44:35.835Z,56.28
2022-09-22T13:47:07.865Z,57.25
2022-09-22T13:49:40.977Z,57.62
2022-09-22T13:52:13.927Z,56.96
2022-09-22T13:54:43.674Z,55.39
2022-09-22T13:57:21.217Z,55.71
2022-09-22T13:59:49.237Z,57.21
2022-09-22T14:02:22.106Z,57.48
2022-09-22T14:04:51.399Z,57.33
2022-09-22T14:07:22.143Z,57.18
2022-09-22T14:09:52.010Z,56.97
2022-09-22T14:12:20.916Z,57.06
2022-09-22T14:14:48.700Z,57.73
2022-09-22T14:17:20.841Z,57.89
2022-09-22T14:19:57.727Z,58.11
2022-09-22T14:22:27.615Z,57.61
2022-09-22T14:24:58.657Z,56.30
2022-09-22T14:27:32.483Z,57.06
2022-09-22T14:30:01.357Z,56.88
2022-09-22T14:32:36.224Z,56.85
2022-09-22T14:35:08.663Z,56.98
2022-09-22T14:37:39.488Z,57.08
2022-09-22T14:40:17.242Z,56.72
2022-09-22T14:42:57.354Z,55.52
2022-09-22T14:45:27.559Z,56.05
2022-09-22T14:48:18.237Z,56.64
2022-09-22T14:50:48.944Z,56.10
2022-09-22T14:53:22.953Z,55.39
2022-09-22T14:55:54.603Z,54.89
2022-09-22T14:58:24.994Z,55.05
2022-09-22T15:01:13.497Z,55.57
2022-09-22T15:03:43.566Z,55.91
2022-09-22T15:06:13.824Z,56.60
2022-09-22T15:08:44.485Z,56.97
2022-09-22T15:11:13.794Z,57.15
2022-09-22T15:13:43.471Z,57.19
2022-09-22T15:16:39.570Z,57.45
2022-09-22T15:19:10.942Z,56.53
2022-09-22T15:21:47.575Z,56.77
2022-09-22T15:24:16.025Z,57.17
2022-09-22T15:26:46.628Z,57.53
2022-09-22T15:29:17.290Z,57.21
2022-09-22T15:31:45.197Z,56.67
2022-09-22T15:34:16.485Z,56.86
2022-09-22T15:36:48.826Z,57.25
2022-09-22T15:39:21.526Z,57.57
2022-09-22T15:41:51.229Z,57.92
2022-09-22T15:44:19.446Z,57.59
2022-09-22T15:46:52.557Z,57.77
2022-09-22T15:49:24.939Z,57.08
2022-09-22T15:51:54.622Z,57.06
2022-09-22T15:54:23.560Z,57.17
2022-09-22T15:56:54.996Z,57.15
2022-09-22T15:59:28.174Z,57.07
2022-09-22T16:01:57.135Z,56.96
2022-09-22T16:04:25.172Z,56.88
2022-09-22T16:06:56.395Z,56.59
2022-09-22T16:09:24.117Z,56.57
2022-09-22T16:11:53.875Z,56.46
2022-09-22T16:14:22.834Z,56.67
2022-09-22T16:16:52.275Z,56.80
2022-09-22T16:19:20.390Z,56.89
2022-09-22T16:21:51.575Z,57.45
2022-09-22T16:24:19.447Z,57.11
2022-09-22T16:26:47.212Z,57.13
2022-09-22T16:29:16.676Z,57.00
2022-09-22T16:31:44.468Z,56.73
2022-09-22T16:34:12.503Z,56.40
2022-09-22T16:36:41.707Z,56.40
2022-09-22T16:39:09.856Z,56.28
2022-09-22T16:41:38.165Z,56.21
2022-09-22T16:44:06.315Z,56.24
2022-09-22T16:46:37.881Z,56.25
2022-09-22T16:49:10.393Z,56.20
2022-09-22T16:51:41.134Z,56.17
2022-09-22T16:54:13.359Z,56.21
2022-09-22T16:56:43.109Z,56.22
2022-09-22T16:59:13.303Z,56.39
2022-09-22T17:01:43.790Z,56.21
2022-09-22T17:04:13.116Z,56.42
2022-09-22T17:06:41.766Z,56.31
2022-09-22T17:09:10.889Z,56.26
2022-09-22T17:11:40.218Z,56.16
2022-09-22T17:14:12.519Z,56.25
2022-09-22T17:16:43.606Z,56.38
2022-09-22T17:19:18.382Z,56.09
2022-09-22T17:21:47.303Z,56.22
2022-09-22T17:24:16.433Z,56.16
2022-09-22T17:26:47.543Z,56.04
2022-09-22T17:29:16.943Z,56.10
2022-09-22T17:31:47.309Z,56.10
2022-09-22T17:34:15.392Z,56.08
2022-09-22T17:36:43.130Z,56.15
2022-09-22T17:39:11.696Z,56.03
2022-09-22T17:41:45.398Z,55.97
2022-09-22T17:44:21.379Z,56.15
2022-09-22T17:47:09.354Z,56.10
2022-09-22T17:49:55.167Z,55.94
2022-09-22T17:52:40.518Z,56.10
2022-09-22T17:55:14.947Z,56.00
2022-09-22T17:57:43.939Z,55.85
2022-09-22T18:00:13.980Z,55.81
2022-09-22T18:02:43.926Z,55.86
2022-09-22T18:05:13.983Z,55.97
2022-09-22T18:07:42.303Z,55.81
2022-09-22T18:10:12.120Z,55.79
2022-09-22T18:12:41.255Z,55.84
2022-09-22T18:15:12.889Z,55.65
2022-09-22T18:17:42.324Z,55.65
2022-09-22T18:20:13.290Z,55.75
2022-09-22T18:22:41.898Z,55.77
2022-09-22T18:25:11.644Z,55.79
2022-09-22T18:27:40.031Z,55.89
2022-09-22T18:30:08.739Z,55.67
2022-09-22T18:32:36.443Z,55.68
2022-09-22T18:35:05.616Z,55.42
2022-09-22T18:37:34.749Z,55.63
2022-09-22T18:40:03.256Z,55.70
2022-09-22T18:42:32.424Z,55.54
2022-09-22T18:45:00.154Z,55.61
2022-09-22T18:47:27.883Z,55.65
2022-09-22T18:49:56.910Z,55.73
2022-09-22T18:52:25.561Z,55.59
2022-09-22T18:54:54.940Z,55.55
2022-09-22T18:57:24.613Z,55.58
2022-09-22T18:59:52.511Z,55.60
2022-09-22T19:02:22.530Z,55.55
2022-09-22T19:04:52.090Z,55.66
2022-09-22T19:07:41.565Z,55.57
2022-09-22T19:10:13.559Z,55.69
2022-09-22T19:12:42.836Z,55.68
2022-09-22T19:15:14.993Z,55.67
2022-09-22T19:17:44.160Z,55.77
2022-09-22T19:20:14.803Z,55.73
2022-09-22T19:22:42.795Z,55.66
2022-09-22T19:25:12.754Z,55.66
2022-09-22T19:27:40.808Z,55.72
2022-09-22T19:30:09.726Z,55.80
2022-09-22T19:32:37.994Z,55.77
2022-09-22T19:35:07.371Z,55.81
2022-09-22T19:37:35.171Z,55.69
2022-09-22T19:40:03.032Z,55.76
2022-09-22T19:42:32.335Z,55.80
2022-09-22T19:45:00.178Z,55.72
2022-09-22T19:47:27.923Z,55.72
2022-09-22T19:49:56.400Z,55.92
2022-09-22T19:52:24.296Z,56.23
2022-09-22T19:54:52.019Z,55.76
2022-09-22T19:57:19.740Z,55.96
2022-09-22T19:59:48.796Z,55.88
2022-09-22T20:02:16.636Z,56.01
2022-09-22T20:04:44.399Z,55.87
2022-09-22T20:07:12.145Z,55.94
2022-09-22T20:09:40.247Z,56.03
2022-09-22T20:12:08.291Z,55.98
2022-09-22T20:14:36.179Z,55.86
2022-09-22T20:17:08.226Z,55.82
2022-09-22T20:19:38.331Z,56.07
2022-09-22T20:22:22.782Z,56.00
2022-09-22T20:24:54.130Z,56.00
2022-09-22T20:27:26.517Z,55.91
2022-09-22T20:29:57.327Z,56.03
2022-09-22T20:32:28.191Z,55.99
2022-09-22T20:34:56.475Z,55.94
2022-09-22T20:37:25.053Z,55.99
2022-09-22T20:39:52.901Z,56.01
2022-09-22T20:42:20.766Z,56.09
2022-09-22T20:44:49.214Z,56.05
2022-09-22T20:47:18.711Z,56.03
2022-09-22T20:49:51.574Z,56.08
2022-09-22T20:52:21.780Z,56.17
2022-09-22T20:54:49.769Z,56.15
2022-09-22T20:57:18.056Z,56.17
2022-09-22T20:59:46.633Z,56.12
2022-09-22T21:02:15.297Z,56.03
2022-09-22T21:04:43.796Z,56.18
2022-09-22T21:07:13.163Z,56.13
2022-09-22T21:09:58.826Z,56.30
2022-09-22T21:12:31.104Z,56.33
2022-09-22T21:14:59.541Z,56.27
2022-09-22T21:17:30.108Z,56.71
2022-09-22T21:19:58.302Z,56.37
2022-09-22T21:22:28.241Z,56.17
2022-09-22T21:24:56.368Z,56.19
2022-09-22T21:27:24.694Z,56.42
2022-09-22T21:29:53.230Z,56.35
2022-09-22T21:32:21.047Z,56.24
2022-09-22T21:34:48.847Z,56.22
2022-09-22T21:37:16.991Z,56.47
2022-09-22T21:39:46.342Z,56.30
2022-09-22T21:42:14.011Z,56.39
2022-09-22T21:44:42.057Z,56.42
2022-09-22T21:47:10.616Z,56.51
2022-09-22T21:49:38.492Z,56.32
2022-09-22T21:52:06.521Z,56.59
2022-09-22T21:54:34.476Z,56.61
2022-09-22T21:57:03.614Z,56.43
2022-09-22T21:59:31.324Z,56.48
2022-09-22T22:01:59.395Z,56.57
2022-09-22T22:04:27.782Z,56.44
2022-09-22T22:06:56.142Z,56.44
2022-09-22T22:09:25.687Z,56.48
2022-09-22T22:11:56.704Z,56.31
2022-09-22T22:14:32.789Z,56.60
2022-09-22T22:17:02.116Z,56.56
2022-09-22T22:19:30.114Z,56.55
2022-09-22T22:21:57.892Z,56.57
2022-09-22T22:24:39.428Z,56.65
2022-09-22T22:27:10.184Z,56.72
2022-09-22T22:29:39.715Z,56.53
2022-09-22T22:32:09.222Z,56.65
2022-09-22T22:34:37.296Z,56.66
2022-09-22T22:37:08.973Z,56.83
2022-09-22T22:39:36.684Z,56.82
2022-09-22T22:42:04.793Z,56.90
2022-09-22T22:44:32.680Z,56.82
2022-09-22T22:47:01.848Z,57.00
2022-09-22T22:49:29.582Z,56.62
2022-09-22T22:51:57.340Z,56.67
2022-09-22T22:54:25.203Z,56.72
2022-09-22T22:56:52.905Z,56.89
2022-09-22T22:59:20.822Z,56.82
2022-09-22T23:01:48.553Z,56.59
2022-09-22T23:04:17.700Z,56.90
2022-09-22T23:06:47.327Z,56.54
2022-09-22T23:09:16.643Z,56.78
2022-09-22T23:11:45.881Z,56.53
2022-09-22T23:14:16.462Z,56.80
2022-09-22T23:16:46.631Z,56.56
2022-09-22T23:19:17.980Z,56.70
2022-09-22T23:21:46.846Z,56.85
2022-09-22T23:24:16.369Z,56.64
2022-09-22T23:26:45.339Z,56.77
2022-09-22T23:29:13.307Z,56.63
2022-09-22T23:31:41.001Z,56.41
2022-09-22T23:34:08.719Z,56.74
2022-09-22T23:36:39.518Z,56.38
2022-09-22T23:39:07.606Z,56.50
2022-09-22T23:41:37.690Z,56.60
2022-09-22T23:44:06.704Z,56.56
2022-09-22T23:46:34.951Z,56.50
2022-09-22T23:49:02.689Z,56.55
2022-09-22T23:51:30.650Z,56.29
2022-09-22T23:54:00.179Z,56.61
2022-09-22T23:56:28.030Z,56.43
2022-09-22T23:58:55.908Z,56.48
